createdAt,value
2023-09-06T00:01:22.640Z,97298.28
2023-09-06T00:03:49.327Z,97296.69
2023-09-06T00:06:16.024Z,97299.31
2023-09-06T00:08:42.758Z,97306.22
2023-09-06T00:11:09.302Z,97303.53
2023-09-06T00:13:36.546Z,97297.97
2023-09-06T00:16:05.063Z,97297.41
2023-09-06T00:18:32.572Z,97292.63
2023-09-06T00:20:59.468Z,97295.56
2023-09-06T00:23:26.580Z,97294.75
2023-09-06T00:25:54.955Z,97288.88
2023-09-06T00:28:21.835Z,97298.72
2023-09-06T00:30:48.466Z,97299.25
2023-09-06T00:33:15.091Z,97299.00
2023-09-06T00:35:41.684Z,97302.19
2023-09-06T00:38:08.626Z,97296.84
2023-09-06T00:40:39.030Z,97302.72
2023-09-06T00:43:07.392Z,97306.44
2023-09-06T00:45:49.022Z,97301.66
2023-09-06T00:48:20.915Z,97296.59
2023-09-06T00:50:52.813Z,97304.78
2023-09-06T00:53:21.384Z,97304.22
2023-09-06T00:55:49.969Z,97298.91
2023-09-06T00:58:18.573Z,97293.03
2023-09-06T01:00:50.574Z,97291.69
2023-09-06T01:03:18.811Z,97291.41
2023-09-06T01:06:22.035Z,97286.63
2023-09-06T01:08:56.455Z,97287.66
2023-09-06T01:11:25.011Z,97288.66
2023-09-06T01:13:56.594Z,97296.63
2023-09-06T01:16:28.166Z,97292.34
2023-09-06T01:18:54.950Z,97289.66
2023-09-06T01:21:25.773Z,97290.16
2023-09-06T01:23:52.910Z,97285.88
2023-09-06T01:26:19.604Z,97290.91
2023-09-06T01:28:46.524Z,97293.81
2023-09-06T01:31:13.099Z,97294.34
2023-09-06T01:33:40.617Z,97294.84
2023-09-06T01:36:07.263Z,97300.34
2023-09-06T01:38:34.107Z,97297.91
2023-09-06T01:41:03.412Z,97283.53
2023-09-06T01:43:30.042Z,97283.50
2023-09-06T01:45:56.953Z,97287.16
2023-09-06T01:48:23.724Z,97287.91
2023-09-06T01:50:50.496Z,97285.97
2023-09-06T01:53:16.950Z,97281.72
2023-09-06T01:55:44.736Z,97286.44
2023-09-06T01:58:12.388Z,97294.31
2023-09-06T02:00:39.533Z,97287.38
2023-09-06T02:03:10.513Z,97288.66
2023-09-06T02:05:37.395Z,97291.50
2023-09-06T02:08:06.940Z,97287.75
2023-09-06T02:10:33.482Z,97290.66
2023-09-06T02:13:00.784Z,97291.72
2023-09-06T02:15:27.442Z,97279.81
2023-09-06T02:17:54.091Z,97288.81
2023-09-06T02:20:22.166Z,97292.50
2023-09-06T02:22:53.635Z,97290.84
2023-09-06T02:25:25.825Z,97294.03
2023-09-06T02:27:53.743Z,97294.53
2023-09-06T02:30:21.455Z,97293.47
2023-09-06T02:32:49.250Z,97302.41
2023-09-06T02:35:16.450Z,97300.84
2023-09-06T02:37:43.185Z,97294.41
2023-09-06T02:40:19.179Z,97301.84
2023-09-06T02:42:45.803Z,97304.44
2023-09-06T02:45:13.151Z,97301.47
2023-09-06T02:47:49.292Z,97303.00
2023-09-06T02:50:18.247Z,97300.59
2023-09-06T02:52:46.499Z,97308.50
2023-09-06T02:55:14.454Z,97293.13
2023-09-06T02:57:42.793Z,97298.41
2023-09-06T03:00:26.707Z,97301.53
2023-09-06T03:03:06.750Z,97301.31
2023-09-06T03:05:42.641Z,97298.41
2023-09-06T03:08:10.864Z,97294.16
2023-09-06T03:10:37.381Z,97291.97
2023-09-06T03:13:06.399Z,97297.28
2023-09-06T03:15:33.192Z,97296.19
2023-09-06T03:18:00.083Z,97305.69
2023-09-06T03:20:44.301Z,97298.44
2023-09-06T03:23:19.214Z,97303.97
2023-09-06T03:25:50.504Z,97300.75
2023-09-06T03:28:19.889Z,97304.44
2023-09-06T03:30:46.998Z,97301.25
2023-09-06T03:33:13.560Z,97304.63
2023-09-06T03:35:40.152Z,97303.03
2023-09-06T03:38:09.994Z,97304.06
2023-09-06T03:40:37.065Z,97308.00
2023-09-06T03:43:16.431Z,97304.31
2023-09-06T03:45:47.183Z,97304.78
2023-09-06T03:48:18.984Z,97309.53
2023-09-06T03:50:47.211Z,97303.69
2023-09-06T03:53:16.269Z,97302.03
2023-09-06T03:55:43.435Z,97298.88
2023-09-06T03:58:11.894Z,97301.50
2023-09-06T04:00:43.052Z,97301.50
2023-09-06T04:03:09.661Z,97306.22
2023-09-06T04:05:36.205Z,97296.63
2023-09-06T04:08:08.251Z,97296.09
2023-09-06T04:10:37.917Z,97297.94
2023-09-06T04:13:08.330Z,97297.06
2023-09-06T04:15:43.880Z,97295.69
2023-09-06T04:18:11.823Z,97304.91
2023-09-06T04:20:40.418Z,97302.75
2023-09-06T04:23:14.365Z,97294.25
2023-09-06T04:25:46.560Z,97303.72
2023-09-06T04:28:15.260Z,97306.94
2023-09-06T04:30:47.193Z,97307.91
2023-09-06T04:33:15.509Z,97313.19
2023-09-06T04:35:44.875Z,97312.69
2023-09-06T04:38:19.389Z,97316.38
2023-09-06T04:40:47.405Z,97314.97
2023-09-06T04:43:20.317Z,97318.88
2023-09-06T04:45:50.624Z,97323.06
2023-09-06T04:48:20.359Z,97328.59
2023-09-06T04:50:47.847Z,97333.06
2023-09-06T04:53:18.731Z,97331.72
2023-09-06T04:55:45.850Z,97339.31
2023-09-06T04:58:12.801Z,97335.66
2023-09-06T05:00:42.644Z,97343.13
2023-09-06T05:03:12.140Z,97334.03
2023-09-06T05:05:40.927Z,97335.19
2023-09-06T05:08:08.040Z,97334.38
2023-09-06T05:10:38.788Z,97340.06
2023-09-06T05:13:13.018Z,97342.31
2023-09-06T05:15:39.865Z,97355.03
2023-09-06T05:18:09.248Z,97350.25
2023-09-06T05:20:39.033Z,97348.13
2023-09-06T05:23:07.080Z,97352.00
2023-09-06T05:25:34.517Z,97363.22
2023-09-06T05:28:03.917Z,97353.25
2023-09-06T05:30:31.021Z,97352.28
2023-09-06T05:32:58.083Z,97351.53
2023-09-06T05:35:25.700Z,97344.50
2023-09-06T05:37:52.224Z,97348.47
2023-09-06T05:40:24.307Z,97351.81
2023-09-06T05:42:51.574Z,97356.25
2023-09-06T05:45:20.411Z,97358.28
2023-09-06T05:47:47.042Z,97360.00
2023-09-06T05:50:13.615Z,97364.44
2023-09-06T05:52:40.055Z,97365.66
2023-09-06T05:55:07.892Z,97367.41
2023-09-06T05:57:34.902Z,97366.00
2023-09-06T06:00:02.580Z,97362.47
2023-09-06T06:02:32.188Z,97357.28
2023-09-06T06:04:58.776Z,97361.72
2023-09-06T06:07:25.373Z,97360.81
2023-09-06T06:09:51.786Z,97362.50
2023-09-06T06:12:23.787Z,97357.38
2023-09-06T06:14:53.990Z,97367.59
2023-09-06T06:17:20.581Z,97370.34
2023-09-06T06:19:50.516Z,97368.28
2023-09-06T06:22:17.009Z,97372.03
2023-09-06T06:24:47.061Z,97371.97
2023-09-06T06:27:14.585Z,97377.28
2023-09-06T06:29:41.325Z,97378.28
2023-09-06T06:32:08.418Z,97377.19
2023-09-06T06:34:39.902Z,97383.69
2023-09-06T06:37:07.063Z,97386.28
2023-09-06T06:39:33.790Z,97376.59
2023-09-06T06:42:00.677Z,97387.56
2023-09-06T06:44:27.260Z,97381.38
2023-09-06T06:46:53.768Z,97373.75
2023-09-06T06:49:20.943Z,97389.66
2023-09-06T06:51:47.559Z,97387.28
2023-09-06T06:54:15.925Z,97395.53
2023-09-06T06:56:43.437Z,97402.38
2023-09-06T06:59:10.384Z,97393.06
2023-09-06T07:01:37.705Z,97397.84
2023-09-06T07:04:05.738Z,97393.19
2023-09-06T07:06:32.792Z,97401.22
2023-09-06T07:08:59.460Z,97393.91
2023-09-06T07:11:26.250Z,97398.63
2023-09-06T07:13:53.973Z,97394.88
2023-09-06T07:16:21.399Z,97400.84
2023-09-06T07:18:48.615Z,97393.06
2023-09-06T07:21:16.336Z,97395.06
2023-09-06T07:23:43.795Z,97392.66
2023-09-06T07:26:11.102Z,97390.19
2023-09-06T07:28:41.724Z,97392.91
2023-09-06T07:31:09.057Z,97395.91
2023-09-06T07:33:36.120Z,97389.88
2023-09-06T07:36:02.680Z,97387.91
2023-09-06T07:38:29.400Z,97395.84
2023-09-06T07:40:58.013Z,97396.84
2023-09-06T07:43:26.906Z,97401.63
2023-09-06T07:45:53.855Z,97406.06
2023-09-06T07:48:20.788Z,97408.28
2023-09-06T07:50:48.343Z,97406.03
2023-09-06T07:53:15.051Z,97401.69
2023-09-06T07:55:45.057Z,97415.34
2023-09-06T07:58:12.202Z,97418.31
2023-09-06T08:00:38.995Z,97412.63
2023-09-06T08:03:05.913Z,97409.41
2023-09-06T08:05:33.470Z,97404.63
2023-09-06T08:08:00.339Z,97411.09
2023-09-06T08:10:26.801Z,97403.97
2023-09-06T08:12:53.336Z,97402.66
2023-09-06T08:15:19.958Z,97405.00
2023-09-06T08:17:48.592Z,97409.69
2023-09-06T08:20:16.635Z,97413.69
2023-09-06T08:22:46.572Z,97424.13
2023-09-06T08:25:17.135Z,97414.94
2023-09-06T08:27:43.712Z,97420.38
2023-09-06T08:30:12.280Z,97424.69
2023-09-06T08:32:40.056Z,97414.06
2023-09-06T08:35:07.818Z,97418.28
2023-09-06T08:37:35.180Z,97413.97
2023-09-06T08:40:06.595Z,97413.84
2023-09-06T08:42:34.806Z,97415.16
2023-09-06T08:45:03.123Z,97413.72
2023-09-06T08:47:29.964Z,97412.28
2023-09-06T08:49:57.994Z,97414.47
2023-09-06T08:52:25.743Z,97414.31
2023-09-06T08:54:53.199Z,97414.66
2023-09-06T08:57:22.370Z,97414.25
2023-09-06T08:59:50.053Z,97419.66
2023-09-06T09:02:17.307Z,97409.56
2023-09-06T09:04:44.090Z,97411.84
2023-09-06T09:07:14.389Z,97416.31
2023-09-06T09:10:05.473Z,97407.03
2023-09-06T09:12:32.962Z,97408.63
2023-09-06T09:15:10.163Z,97401.38
2023-09-06T09:17:57.428Z,97406.31
2023-09-06T09:20:28.242Z,97412.63
2023-09-06T09:22:59.434Z,97409.69
2023-09-06T09:25:25.968Z,97410.09
2023-09-06T09:27:56.949Z,97400.34
2023-09-06T09:30:24.933Z,97399.84
2023-09-06T09:33:03.234Z,97392.97
2023-09-06T09:35:32.543Z,97392.19
2023-09-06T09:38:00.917Z,97390.34
2023-09-06T09:40:45.981Z,97385.19
2023-09-06T09:43:18.591Z,97383.47
2023-09-06T09:45:46.947Z,97381.78
2023-09-06T09:48:16.124Z,97380.44
2023-09-06T09:50:43.658Z,97380.53
2023-09-06T09:53:21.134Z,97383.94
2023-09-06T09:55:50.516Z,97385.22
2023-09-06T09:58:20.999Z,97379.97
2023-09-06T10:00:51.448Z,97377.63
2023-09-06T10:03:19.756Z,97383.78
2023-09-06T10:05:48.769Z,97388.59
2023-09-06T10:08:19.006Z,97385.47
2023-09-06T10:10:45.921Z,97389.94
2023-09-06T10:13:15.844Z,97376.03
2023-09-06T10:15:44.389Z,97376.53
2023-09-06T10:18:12.305Z,97381.47
2023-09-06T10:20:40.415Z,97377.56
2023-09-06T10:23:08.626Z,97375.88
2023-09-06T10:25:41.009Z,97378.69
2023-09-06T10:28:08.636Z,97375.00
2023-09-06T10:30:52.416Z,97373.56
2023-09-06T10:33:34.079Z,97376.84
2023-09-06T10:36:07.147Z,97368.59
2023-09-06T10:38:36.673Z,97371.72
2023-09-06T10:41:08.131Z,97361.88
2023-09-06T10:43:56.450Z,97359.53
2023-09-06T10:46:28.542Z,97359.88
2023-09-06T10:49:13.852Z,97362.47
2023-09-06T10:51:56.057Z,97358.50
2023-09-06T10:54:35.287Z,97358.00
2023-09-06T10:57:07.577Z,97353.59
2023-09-06T10:59:37.985Z,97356.81
2023-09-06T11:02:27.045Z,97353.97
2023-09-06T11:05:11.253Z,97361.25
2023-09-06T11:07:51.042Z,97354.31
2023-09-06T11:10:24.639Z,97347.22
2023-09-06T11:12:54.998Z,97348.78
2023-09-06T11:15:22.362Z,97336.50
2023-09-06T11:17:48.869Z,97338.72
2023-09-06T11:20:16.029Z,97341.88
2023-09-06T11:22:53.147Z,97340.38
2023-09-06T11:25:22.451Z,97346.94
2023-09-06T11:27:51.040Z,97343.63
2023-09-06T11:30:27.729Z,97340.72
2023-09-06T11:32:56.395Z,97331.13
2023-09-06T11:35:34.823Z,97329.50
2023-09-06T11:38:02.100Z,97337.84
2023-09-06T11:40:31.828Z,97316.94
2023-09-06T11:43:05.679Z,97315.22
2023-09-06T11:45:34.371Z,97317.38
2023-09-06T11:48:06.863Z,97327.47
2023-09-06T11:50:35.588Z,97321.25
2023-09-06T11:53:05.957Z,97321.84
2023-09-06T11:55:35.624Z,97316.81
2023-09-06T11:58:02.435Z,97321.03
2023-09-06T12:00:46.698Z,97317.44
2023-09-06T12:03:14.467Z,97314.31
2023-09-06T12:05:51.667Z,97315.41
2023-09-06T12:08:23.914Z,97316.00
2023-09-06T12:11:06.632Z,97307.91
2023-09-06T12:13:38.522Z,97304.75
2023-09-06T12:16:07.103Z,97299.38
2023-09-06T12:18:35.943Z,97294.63
2023-09-06T12:21:04.634Z,97298.63
2023-09-06T12:23:31.804Z,97291.63
2023-09-06T12:25:59.994Z,97289.16
2023-09-06T12:28:29.188Z,97293.81
2023-09-06T12:31:00.069Z,97289.72
2023-09-06T12:33:28.722Z,97290.56
2023-09-06T12:36:06.567Z,97288.94
2023-09-06T12:38:33.573Z,97284.41
2023-09-06T12:41:01.552Z,97282.69
2023-09-06T12:43:28.167Z,97284.97
2023-09-06T12:45:55.158Z,97287.84
2023-09-06T12:48:22.839Z,97285.84
2023-09-06T12:50:50.558Z,97276.28
2023-09-06T12:53:17.475Z,97280.53
2023-09-06T12:55:46.657Z,97277.81
2023-09-06T12:58:13.420Z,97276.44
2023-09-06T13:00:40.062Z,97276.69
2023-09-06T13:03:07.600Z,97271.88
2023-09-06T13:05:34.256Z,97273.03
2023-09-06T13:08:01.776Z,97268.22
2023-09-06T13:10:30.144Z,97269.72
2023-09-06T13:12:56.664Z,97270.88
2023-09-06T13:15:23.556Z,97268.44
2023-09-06T13:17:50.125Z,97262.59
2023-09-06T13:20:17.060Z,97259.53
2023-09-06T13:22:44.649Z,97257.28
2023-09-06T13:25:12.684Z,97256.31
2023-09-06T13:27:39.804Z,97254.34
2023-09-06T13:30:06.982Z,97251.94
2023-09-06T13:32:33.666Z,97246.25
2023-09-06T13:35:00.530Z,97247.84
2023-09-06T13:37:28.084Z,97241.28
2023-09-06T13:39:55.959Z,97240.44
2023-09-06T13:42:22.540Z,97241.03
2023-09-06T13:44:49.026Z,97237.44
2023-09-06T13:47:17.486Z,97234.59
2023-09-06T13:49:44.335Z,97222.16
2023-09-06T13:52:13.447Z,97224.97
2023-09-06T13:54:41.648Z,97226.97
2023-09-06T13:57:08.540Z,97227.38
2023-09-06T13:59:35.605Z,97228.13
2023-09-06T14:02:02.193Z,97231.31
2023-09-06T14:04:28.922Z,97221.31
2023-09-06T14:06:55.663Z,97221.88
2023-09-06T14:09:23.761Z,97212.53
2023-09-06T14:11:50.750Z,97210.47
2023-09-06T14:14:17.311Z,97207.47
2023-09-06T14:16:44.491Z,97217.31
2023-09-06T14:19:11.025Z,97208.66
2023-09-06T14:21:39.585Z,97215.91
2023-09-06T14:24:06.286Z,97210.00
2023-09-06T14:26:32.866Z,97212.22
2023-09-06T14:29:00.184Z,97202.19
2023-09-06T14:31:27.055Z,97205.25
2023-09-06T14:33:53.554Z,97205.75
2023-09-06T14:36:20.067Z,97201.31
2023-09-06T14:38:46.482Z,97202.66
2023-09-06T14:41:14.097Z,97197.16
2023-09-06T14:43:40.683Z,97196.59
2023-09-06T14:46:07.924Z,97197.78
2023-09-06T14:48:34.874Z,97200.38
2023-09-06T14:51:02.525Z,97198.63
2023-09-06T14:53:29.450Z,97191.16
2023-09-06T14:56:03.253Z,97193.88
2023-09-06T14:58:30.942Z,97210.75
2023-09-06T15:00:57.782Z,97202.50
2023-09-06T15:03:24.746Z,97197.41
2023-09-06T15:05:51.889Z,97202.72
2023-09-06T15:08:18.745Z,97199.72
2023-09-06T15:10:45.747Z,97200.63
2023-09-06T15:13:15.920Z,97193.44
2023-09-06T15:15:44.324Z,97194.34
2023-09-06T15:18:10.874Z,97194.84
2023-09-06T15:20:37.782Z,97194.19
2023-09-06T15:23:04.637Z,97196.13
2023-09-06T15:25:31.490Z,97190.09
2023-09-06T15:27:58.000Z,97199.75
2023-09-06T15:30:24.804Z,97191.00
2023-09-06T15:32:51.611Z,97193.81
2023-09-06T15:35:18.227Z,97197.03
2023-09-06T15:38:04.842Z,97198.16
2023-09-06T15:40:32.980Z,97197.56
2023-09-06T15:42:59.464Z,97191.72
2023-09-06T15:45:26.746Z,97197.91
2023-09-06T15:47:54.385Z,97197.47
2023-09-06T15:50:21.238Z,97190.38
2023-09-06T15:52:48.787Z,97198.72
2023-09-06T15:55:16.105Z,97191.56
2023-09-06T15:57:44.392Z,97190.78
2023-09-06T16:02:41.797Z,97188.81
2023-09-06T16:05:09.716Z,97191.88
2023-09-06T16:07:38.103Z,97183.97
2023-09-06T16:10:05.594Z,97185.56
2023-09-06T16:12:32.578Z,97175.47
2023-09-06T16:15:00.390Z,97182.47
2023-09-06T16:17:28.032Z,97182.91
2023-09-06T16:19:54.553Z,97177.75
2023-09-06T16:22:22.959Z,97175.78
2023-09-06T16:24:50.513Z,97174.44
2023-09-06T16:27:17.293Z,97187.31
2023-09-06T16:29:44.815Z,97179.84
2023-09-06T16:32:13.883Z,97186.75
2023-09-06T16:34:40.761Z,97187.94
2023-09-06T16:37:07.233Z,97185.13
2023-09-06T16:39:35.097Z,97186.75
2023-09-06T16:42:02.231Z,97188.41
2023-09-06T16:44:30.325Z,97190.16
2023-09-06T16:46:58.396Z,97190.47
2023-09-06T16:49:25.825Z,97195.72
2023-09-06T16:51:52.492Z,97183.84
2023-09-06T16:54:19.665Z,97191.09
2023-09-06T16:56:46.923Z,97183.22
2023-09-06T16:59:13.985Z,97187.50
2023-09-06T17:01:40.904Z,97187.69
2023-09-06T17:04:08.818Z,97199.75
2023-09-06T17:06:35.537Z,97192.66
2023-09-06T17:09:02.473Z,97203.66
2023-09-06T17:11:29.206Z,97203.41
2023-09-06T17:13:55.633Z,97189.38
2023-09-06T17:16:22.155Z,97196.31
2023-09-06T17:18:48.765Z,97201.78
2023-09-06T17:21:15.324Z,97200.13
2023-09-06T17:23:53.250Z,97197.63
2023-09-06T17:26:27.693Z,97203.19
2023-09-06T17:28:54.431Z,97198.31
2023-09-06T17:31:22.021Z,97195.56
2023-09-06T17:33:49.592Z,97201.38
2023-09-06T17:36:16.397Z,97210.34
2023-09-06T17:38:42.841Z,97205.84
2023-09-06T17:41:10.222Z,97202.53
2023-09-06T17:43:37.309Z,97205.44
2023-09-06T17:46:07.099Z,97208.31
2023-09-06T17:48:33.826Z,97206.66
2023-09-06T17:51:08.716Z,97212.91
2023-09-06T17:53:37.416Z,97218.09
2023-09-06T17:56:16.384Z,97218.75
2023-09-06T17:58:44.408Z,97229.88
2023-09-06T18:01:13.905Z,97226.06
2023-09-06T18:03:45.417Z,97226.59
2023-09-06T18:06:14.959Z,97225.03
2023-09-06T18:08:42.972Z,97228.88
2023-09-06T18:11:10.039Z,97228.09
2023-09-06T18:13:39.980Z,97221.00
2023-09-06T18:16:12.089Z,97222.22
2023-09-06T18:18:38.940Z,97228.59
2023-09-06T18:21:10.119Z,97226.53
2023-09-06T18:23:37.937Z,97232.25
2023-09-06T18:26:05.401Z,97237.31
2023-09-06T18:28:32.805Z,97232.25
2023-09-06T18:31:00.228Z,97241.75
2023-09-06T18:33:27.200Z,97231.13
2023-09-06T18:35:56.588Z,97225.28
2023-09-06T18:38:24.714Z,97239.53
2023-09-06T18:40:54.353Z,97239.84
2023-09-06T18:43:23.247Z,97241.88
2023-09-06T18:45:49.934Z,97241.88
2023-09-06T18:48:21.856Z,97246.44
2023-09-06T18:50:50.720Z,97246.25
2023-09-06T18:53:17.380Z,97251.31
2023-09-06T18:55:47.777Z,97249.69
2023-09-06T18:58:18.513Z,97241.94
2023-09-06T19:00:45.972Z,97250.94
2023-09-06T19:03:14.138Z,97241.63
2023-09-06T19:05:42.357Z,97260.25
2023-09-06T19:08:15.417Z,97259.53
2023-09-06T19:10:43.303Z,97258.19
2023-09-06T19:13:11.332Z,97262.25
2023-09-06T19:15:37.875Z,97255.56
2023-09-06T19:18:04.801Z,97264.38
2023-09-06T19:20:31.361Z,97259.22
2023-09-06T19:22:57.957Z,97264.84
2023-09-06T19:25:28.556Z,97262.94
2023-09-06T19:27:55.352Z,97260.41
2023-09-06T19:30:22.330Z,97259.56
2023-09-06T19:32:49.008Z,97255.41
2023-09-06T19:35:15.600Z,97272.75
2023-09-06T19:37:42.266Z,97269.19
2023-09-06T19:40:11.316Z,97270.41
2023-09-06T19:42:37.850Z,97264.66
2023-09-06T19:45:04.667Z,97271.22
2023-09-06T19:47:31.506Z,97272.41
2023-09-06T19:49:58.176Z,97271.84
2023-09-06T19:52:24.663Z,97266.19
2023-09-06T19:54:51.066Z,97264.66
2023-09-06T19:57:18.140Z,97267.13
2023-09-06T19:59:44.587Z,97270.81
2023-09-06T20:02:11.363Z,97267.84
2023-09-06T20:04:39.517Z,97262.88
2023-09-06T20:07:06.360Z,97264.88
2023-09-06T20:09:33.052Z,97256.13
2023-09-06T20:11:59.639Z,97254.34
2023-09-06T20:14:28.957Z,97263.28
2023-09-06T20:16:56.750Z,97263.88
2023-09-06T20:19:24.505Z,97262.88
2023-09-06T20:21:51.452Z,97265.66
2023-09-06T20:24:18.168Z,97263.56
2023-09-06T20:26:44.834Z,97267.41
2023-09-06T20:29:11.522Z,97267.00
2023-09-06T20:31:38.477Z,97271.97
2023-09-06T20:34:05.375Z,97269.34
2023-09-06T20:36:34.182Z,97269.94
2023-09-06T20:39:00.738Z,97271.09
2023-09-06T20:41:27.290Z,97278.25
2023-09-06T20:43:53.845Z,97269.97
2023-09-06T20:46:20.443Z,97277.16
2023-09-06T20:48:47.480Z,97274.47
2023-09-06T20:51:16.940Z,97278.00
2023-09-06T20:53:44.557Z,97271.88
2023-09-06T20:56:12.014Z,97278.41
2023-09-06T20:58:39.172Z,97273.78
2023-09-06T21:01:16.529Z,97278.88
2023-09-06T21:03:43.398Z,97279.59
2023-09-06T21:06:11.858Z,97277.66
2023-09-06T21:08:39.901Z,97273.53
2023-09-06T21:11:06.524Z,97271.59
2023-09-06T21:13:34.152Z,97273.34
2023-09-06T21:16:05.946Z,97272.16
2023-09-06T21:18:33.028Z,97268.31
2023-09-06T21:20:59.899Z,97263.59
2023-09-06T21:23:26.531Z,97268.28
2023-09-06T21:25:53.273Z,97271.81
2023-09-06T21:28:20.022Z,97270.31
2023-09-06T21:30:48.576Z,97276.28
2023-09-06T21:33:15.740Z,97268.88
2023-09-06T21:35:46.601Z,97278.53
2023-09-06T21:38:13.778Z,97282.84
2023-09-06T21:40:46.144Z,97285.56
2023-09-06T21:43:18.362Z,97282.44
2023-09-06T21:45:46.537Z,97281.97
2023-09-06T21:48:13.349Z,97284.69
2023-09-06T21:50:41.917Z,97286.59
2023-09-06T21:53:09.558Z,97276.97
2023-09-06T21:55:36.357Z,97283.41
2023-09-06T21:58:10.372Z,97283.69
2023-09-06T22:00:37.698Z,97279.47
2023-09-06T22:03:04.598Z,97289.63
2023-09-06T22:05:31.194Z,97290.97
2023-09-06T22:07:57.708Z,97284.31
2023-09-06T22:10:24.561Z,97289.41
2023-09-06T22:12:51.206Z,97291.81
2023-09-06T22:15:17.738Z,97287.59
2023-09-06T22:17:44.398Z,97285.44
2023-09-06T22:20:11.210Z,97288.41
2023-09-06T22:22:37.843Z,97287.09
2023-09-06T22:25:06.372Z,97282.81
2023-09-06T22:27:33.133Z,97282.84
2023-09-06T22:29:59.736Z,97285.50
2023-09-06T22:32:26.934Z,97270.84
2023-09-06T22:34:53.679Z,97275.91
2023-09-06T22:37:20.369Z,97282.59
2023-09-06T22:39:46.944Z,97286.56
2023-09-06T22:42:13.596Z,97290.34
2023-09-06T22:44:40.186Z,97276.47
2023-09-06T22:47:09.017Z,97285.81
2023-09-06T22:49:38.347Z,97280.25
2023-09-06T22:52:07.088Z,97280.28
2023-09-06T22:54:37.017Z,97277.91
2023-09-06T22:57:04.670Z,97276.03
2023-09-06T22:59:31.785Z,97286.97
2023-09-06T23:01:58.614Z,97286.19
2023-09-06T23:04:25.201Z,97293.13
2023-09-06T23:06:52.751Z,97296.59
2023-09-06T23:09:20.831Z,97284.63
2023-09-06T23:11:57.014Z,97288.88
2023-09-06T23:14:25.053Z,97284.63
2023-09-06T23:16:52.197Z,97281.44
2023-09-06T23:19:26.223Z,97297.97
2023-09-06T23:21:56.404Z,97293.19
2023-09-06T23:24:23.852Z,97291.06
2023-09-06T23:26:59.562Z,97296.66
2023-09-06T23:29:29.503Z,97300.66
2023-09-06T23:32:00.026Z,97302.78
2023-09-06T23:34:30.854Z,97295.88
2023-09-06T23:36:58.797Z,97302.81
2023-09-06T23:39:29.553Z,97296.94
2023-09-06T23:41:57.802Z,97285.72
2023-09-06T23:44:24.993Z,97294.50
2023-09-06T23:46:51.852Z,97295.84
2023-09-06T23:49:21.113Z,97297.41
2023-09-06T23:51:48.179Z,97286.25
2023-09-06T23:54:15.250Z,97291.56
2023-09-06T23:56:42.099Z,97291.53
2023-09-06T23:59:08.918Z,97296.59
